• Join FlightAware (Why Join?)
  • Login
  • US Flag 
08:19AM EDT


 

Airport Tracker/Info


-or-


 

Live Flight TrackerFlight Track Log ✈ CLH304 ✈ 21-Jun-2013 ✈ EDDF / FRA - LIMF / TRN

Flight Track Log - Related Links

Times and Time Zones

All times are in EDT time to prevent confusion due to time zone crossing. See the CLH304 flight status page for this flight to view local times or setup timezone preferences in your user account.

Time Position Orientation Groundspeed Altitude Reporting Facility
EDT Latitude Longitude Course Direction KTS MPH feet Rate Location/Type
03:59PM 49.4114 8.4196 187° South  Level Estimated
04:00PM 49.3089 8.3993 187° South  Level Estimated
04:01PM 49.2064 8.3791 187° South  Level Estimated
04:02PM 49.1039 8.3590 187° South  Level Estimated
04:03PM 49.0014 8.3389 187° South  Level Estimated
04:04PM 48.8989 8.3190 187° South  Level Estimated
04:05PM 48.7963 8.2991 187° South  Level Estimated
04:06PM 48.6938 8.2793 187° South  Level Estimated
04:07PM 48.5913 8.2596 187° South  Level Estimated
04:08PM 48.4887 8.2400 187° South  Level Estimated
04:09PM 48.3862 8.2204 187° South  Level Estimated
04:10PM 48.2836 8.2009 187° South  Level Estimated
04:11PM 48.1811 8.1816 187° South  Level Estimated
04:12PM 48.0785 8.1622 187° South  Level Estimated
04:13PM 47.9760 8.1430 187° South  Level Estimated
04:14PM 47.8734 8.1238 187° South  Level Estimated
04:15PM 47.7709 8.1047 187° South  Level Estimated
04:16PM 47.6683 8.0857 187° South  Level Estimated
04:17PM 47.5658 8.0668 187° South  Level Estimated
04:18PM 47.4632 8.0479 187° South  Level Estimated
04:19PM 47.3606 8.0291 187° South  Level Estimated
04:20PM 47.2580 8.0104 187° South  Level Estimated
04:21PM 47.1555 7.9917 187° South  Level Estimated
04:22PM 47.0529 7.9732 187° South  Level Estimated
04:23PM 46.9503 7.9547 187° South  Level Estimated
04:24PM 46.8477 7.9362 187° South  Level Estimated
04:25PM 46.7451 7.9179 187° South  Level Estimated
04:26PM 46.6425 7.8996 187° South  Level Estimated
04:27PM 46.5399 7.8814 187° South  Level Estimated
04:28PM 46.4373 7.8632 187° South  Level Estimated
04:29PM 46.3347 7.8451 187° South  Level Estimated
04:30PM 46.2321 7.8271 187° South  Level Estimated
04:31PM 46.1295 7.8091 187° South  Level Estimated
04:32PM 46.0269 7.7912 187° South  Level Estimated
04:33PM 45.9243 7.7734 187° South  Level Estimated
04:34PM 45.8217 7.7557 187° South  Level Estimated
04:35PM 45.7191 7.7380 187° South  Level Estimated
04:36PM 45.6164 7.7204 187° South  Level Estimated
04:37PM 45.5138 7.7028 187° South  Level Estimated
04:38PM 45.4112 7.6853 187° South  Level Estimated
04:39PM 45.3086 7.6679 187° South  Level Estimated
04:40PM 45.2059 7.6505 187° South  Level Estimated
04:41PM 45.2008 7.6496 187° South  Level Estimated
04:42PM 45.2008 7.6496 35° Northeast  Level Estimated
04:43PM 45.2008 7.6496 35° Northeast  Level Estimated
04:44PM 45.2008 7.6496 35° Northeast  Level Estimated
04:45PM 45.2008 7.6496 35° Northeast  Level Estimated
04:46PM 45.2008 7.6496 35° Northeast  Level Estimated
04:47PM 45.2008 7.6496 35° Northeast  Level Estimated
04:48PM 45.2008 7.6496 35° Northeast  Level Estimated
04:49PM 45.2008 7.6496 35° Northeast  Level Estimated
04:50PM 45.2008 7.6496 35° Northeast  Level Estimated
04:51PM 45.2008 7.6496 35° Northeast  Level Estimated
04:52PM 45.2008 7.6496 35° Northeast  Level Estimated
04:53PM 45.2008 7.6496 35° Northeast  Level Estimated
04:54PM 45.2008 7.6496 35° Northeast  Level Estimated
04:55PM 45.2008 7.6496 35° Northeast  Level Estimated
04:56PM 45.2008 7.6496 35° Northeast  Level Estimated